Terminal Aerodrome Forecast
Issued by NWS Upton, NY

Home | Current Version | Previous Version | Text Only | Print | Product List | Glossary On
Versions: 1 2 3 4 5 6 7 8 9 10 11 12 13 14 15 16 17 18 19 20 21 22 23 24 25 26 27 28 29 30 31 32 33 34 35 36 37 38
789
FTUS41 KOKX 190540
TAFJFK
TAF
KJFK 190540Z 1906/2012 23008KT 6SM BR SCT015 SCT080 BKN250
      TEMPO 1907/1910 BKN015
     FM191000 25006KT 6SM BR SCT025 BKN050 BKN250
     FM191200 31008KT P6SM SCT050
     FM191500 26008KT P6SM SCT025 SCT050
     FM191800 19013KT P6SM SCT040
     FM200300 27008KT P6SM FEW250=

USA.gov is the U.S. government's official web portal to all federal, state and local government web resources and services.